Time;durP1;ratioP1;P1;durP2;ratioP2;P2;SDS_P1;SDS_P2;PMS_P1;PMS_P2;Temp;Humidity;BMP_temperature;BMP_pressure;BME280_temperature;BME280_humidity;BME280_pressure;Samples;Min_cycle;Max_cycle;Signal;HPM_P1;HPM_P2
2022/03/29 00:00:12;;;;;;;14.85;8.35;;;;;;;2.65;97.80;92917.66;2103761;28;20103;-84
2022/03/29 00:01:13;;;;;;;12.90;8.88;;;;;;;2.48;98.04;92919.81;2092095;28;20608;-83
2022/03/29 00:02:14;;;;;;;12.52;8.63;;;;;;;2.44;98.53;92920.91;2086809;28;20414;-82
2022/03/29 00:03:15;;;;;;;12.90;7.97;;;;;;;2.46;98.46;92918.69;2089621;28;20544;-83
2022/03/29 00:04:16;;;;;;;11.30;8.68;;;;;;;2.43;98.30;92909.63;2092387;28;20106;-82
2022/03/29 00:05:17;;;;;;;14.88;8.85;;;;;;;2.51;97.79;92911.16;2101439;28;20075;-85
2022/03/29 00:06:18;;;;;;;14.35;9.18;;;;;;;2.50;96.93;92911.53;2096293;28;20028;-83
2022/03/29 00:07:19;;;;;;;14.32;10.32;;;;;;;2.52;97.18;92910.03;2090650;28;20490;-85
2022/03/29 00:08:20;;;;;;;11.38;9.27;;;;;;;2.60;96.88;92899.53;2089502;28;20029;-84
2022/03/29 00:09:22;;;;;;;15.32;9.95;;;;;;;2.61;96.73;92901.03;2094689;28;20027;-84
2022/03/29 00:10:23;;;;;;;11.73;8.68;;;;;;;2.67;96.03;92905.56;2087480;28;20013;-84
2022/03/29 00:11:24;;;;;;;12.43;8.90;;;;;;;2.68;95.79;92901.09;2100621;28;20020;-84
2022/03/29 00:12:25;;;;;;;19.20;9.43;;;;;;;2.58;96.81;92901.78;2111776;28;20035;-85
2022/03/29 00:13:33;;;;;;;13.02;9.20;;;;;;;2.63;96.24;92898.78;2105325;28;20023;-85
2022/03/29 00:14:34;;;;;;;13.80;9.45;;;;;;;2.63;96.15;92893.50;2112738;28;20053;-84
2022/03/29 00:15:35;;;;;;;15.43;9.38;;;;;;;2.56;96.55;92890.84;2097957;28;20501;-84
2022/03/29 00:16:36;;;;;;;12.63;8.38;;;;;;;2.62;96.33;92889.34;2095618;28;20036;-85
2022/03/29 00:17:37;;;;;;;12.02;9.25;;;;;;;2.60;96.29;92891.63;2100440;28;20024;-83
2022/03/29 00:18:38;;;;;;;13.57;8.90;;;;;;;2.61;96.38;92890.47;2097650;28;20028;-86
2022/03/29 00:19:39;;;;;;;13.00;8.88;;;;;;;2.58;96.20;92884.06;2097613;28;20033;-83
2022/03/29 00:20:40;;;;;;;15.15;9.20;;;;;;;2.51;97.06;92886.69;2093593;28;20080;-85
2022/03/29 00:21:41;;;;;;;14.70;9.65;;;;;;;2.55;96.70;92886.66;2098361;28;20023;-85
2022/03/29 00:22:42;;;;;;;10.73;8.68;;;;;;;2.49;97.96;92879.13;2096716;28;20016;-85
2022/03/29 00:23:43;;;;;;;14.40;9.70;;;;;;;2.43;98.21;92885.88;2089548;28;20024;-85
2022/03/29 00:24:44;;;;;;;11.93;8.88;;;;;;;2.36;98.29;92885.84;2097498;28;20059;-84
2022/03/29 00:25:45;;;;;;;12.88;8.88;;;;;;;2.36;99.16;92883.19;2095690;28;20040;-84
2022/03/29 00:26:46;;;;;;;11.05;8.60;;;;;;;2.42;98.68;92878.34;2090769;28;20226;-83
2022/03/29 00:27:49;;;;;;;9.85;7.85;;;;;;;2.35;99.04;92881.69;2087607;28;20036;-83
2022/03/29 00:28:50;;;;;;;15.27;8.68;;;;;;;2.40;98.29;92876.06;2093520;28;20020;-84
2022/03/29 00:29:51;;;;;;;15.02;9.40;;;;;;;2.29;99.24;92875.25;2091812;28;20071;-84
2022/03/29 00:30:52;;;;;;;13.30;8.73;;;;;;;2.40;98.99;92870.03;2088188;28;20135;-85
2022/03/29 00:31:53;;;;;;;12.48;9.02;;;;;;;2.39;98.87;92879.06;2096852;28;20056;-84
2022/03/29 00:32:55;;;;;;;12.07;8.05;;;;;;;2.54;97.93;92872.72;2097353;28;20435;-84
2022/03/29 00:33:56;;;;;;;13.13;8.77;;;;;;;2.48;98.34;92874.97;2096516;28;20029;-83
2022/03/29 00:34:57;;;;;;;12.48;8.82;;;;;;;2.48;98.33;92871.59;2097159;28;20048;-83
2022/03/29 00:35:58;;;;;;;12.27;8.52;;;;;;;2.64;97.98;92871.28;2095999;28;20029;-84
2022/03/29 00:36:59;;;;;;;11.93;7.75;;;;;;;2.44;97.93;92870.81;2089051;28;20629;-84
2022/03/29 00:38:00;;;;;;;11.73;8.15;;;;;;;2.32;99.82;92866.59;2090933;28;20028;-83
2022/03/29 00:39:02;;;;;;;10.93;7.93;;;;;;;2.31;100.00;92864.34;2096803;28;20038;-84
2022/03/29 00:40:04;;;;;;;10.40;8.27;;;;;;;2.33;100.00;92865.50;2106702;28;20027;-83
2022/03/29 00:41:05;;;;;;;12.57;7.35;;;;;;;2.29;100.00;92870.00;2103599;28;20062;-83
2022/03/29 00:42:06;;;;;;;14.93;7.75;;;;;;;2.22;100.00;92864.66;2100129;28;20518;-84
2022/03/29 00:43:08;;;;;;;10.65;7.95;;;;;;;2.17;100.00;92865.03;2106948;28;20020;-83
2022/03/29 00:44:09;;;;;;;11.60;8.18;;;;;;;2.14;100.00;92863.13;2095236;28;20066;-84
2022/03/29 00:45:11;;;;;;;10.95;8.35;;;;;;;2.18;100.00;92864.63;2084014;28;20022;-84
2022/03/29 00:46:12;;;;;;;8.85;7.32;;;;;;;2.21;100.00;92861.28;2086789;28;20474;-84
2022/03/29 00:47:13;;;;;;;11.75;8.77;;;;;;;2.20;100.00;92865.03;2091097;28;20156;-84
2022/03/29 00:48:14;;;;;;;12.02;8.27;;;;;;;2.16;100.00;92859.00;2095237;28;20070;-84
2022/03/29 00:49:15;;;;;;;12.60;9.30;;;;;;;2.13;100.00;92857.09;2093966;28;20017;-83
2022/03/29 00:50:16;;;;;;;13.88;8.80;;;;;;;2.12;100.00;92860.84;2096252;28;20031;-84
2022/03/29 00:51:17;;;;;;;10.35;8.07;;;;;;;2.12;100.00;92852.94;2084902;28;20017;-84
2022/03/29 00:52:19;;;;;;;11.85;8.45;;;;;;;2.06;100.00;92853.66;2085905;28;20032;-85
2022/03/29 00:53:22;;;;;;;12.57;8.75;;;;;;;2.04;100.00;92859.28;2087539;28;20028;-83
2022/03/29 00:54:42;;;;;;;12.57;8.45;;;;;;;2.09;100.00;92856.31;2086328;28;20502;-84
2022/03/29 00:55:44;;;;;;;12.18;8.35;;;;;;;2.09;100.00;92853.66;2106999;28;20032;-84
2022/03/29 00:56:45;;;;;;;13.65;8.90;;;;;;;2.01;100.00;92854.75;2101648;28;20020;-82
2022/03/29 00:57:46;;;;;;;10.32;8.02;;;;;;;2.05;100.00;92854.78;2084876;28;20100;-84
2022/03/29 00:58:48;;;;;;;12.38;8.75;;;;;;;2.03;100.00;92854.41;2094676;28;20017;-83
2022/03/29 00:59:51;;;;;;;11.35;8.63;;;;;;;2.05;100.00;92849.50;2101137;28;20077;-83
2022/03/29 01:00:58;;;;;;;11.15;8.60;;;;;;;1.98;100.00;92850.22;2097128;28;20155;-84
2022/03/29 01:02:00;;;;;;;12.85;9.05;;;;;;;1.96;100.00;92850.59;2089571;28;20532;-83
2022/03/29 01:03:03;;;;;;;11.75;8.68;;;;;;;1.96;100.00;92847.94;2087533;28;20067;-84
2022/03/29 01:04:06;;;;;;;11.95;8.38;;;;;;;2.04;100.00;92840.09;2089679;28;20031;-85
2022/03/29 01:05:07;;;;;;;10.77;8.43;;;;;;;2.10;100.00;92846.50;2088364;28;20060;-83
2022/03/29 01:06:08;;;;;;;10.07;8.50;;;;;;;2.19;100.00;92844.31;2089233;28;20075;-86
2022/03/29 01:07:10;;;;;;;14.80;8.65;;;;;;;2.24;99.95;92838.69;2086981;28;20017;-83
2022/03/29 01:08:11;;;;;;;9.70;8.30;;;;;;;2.23;99.58;92839.81;2095164;28;20501;-83
2022/03/29 01:09:13;;;;;;;13.70;8.90;;;;;;;2.25;99.70;92837.56;2094394;28;20067;-82
2022/03/29 01:10:14;;;;;;;11.15;8.80;;;;;;;2.16;99.34;92839.78;2096229;28;20490;-83
2022/03/29 01:11:15;;;;;;;11.80;8.68;;;;;;;2.19;99.92;92839.78;2096461;28;20055;-83
2022/03/29 01:12:16;;;;;;;13.90;8.77;;;;;;;2.13;99.96;92836.00;2102369;28;20036;-82
2022/03/29 01:13:18;;;;;;;10.70;8.27;;;;;;;2.09;100.00;92834.47;2100841;28;20030;-83
2022/03/29 01:14:21;;;;;;;16.10;8.32;;;;;;;2.07;100.00;92828.81;2104721;28;20012;-83
2022/03/29 01:15:35;;;;;;;12.20;8.63;;;;;;;2.05;100.00;92831.06;2089447;28;20043;-83
2022/03/29 01:17:57;;;;;;;15.88;8.80;;;;;;;2.03;100.00;92836.69;2106750;28;20027;-82
2022/03/29 01:18:59;;;;;;;13.70;8.90;;;;;;;2.03;98.72;92830.69;2105144;28;20032;-83
2022/03/29 01:20:01;;;;;;;16.88;9.00;;;;;;;2.09;100.00;92829.19;2100301;28;20048;-83
2022/03/29 01:21:06;;;;;;;12.30;8.98;;;;;;;2.08;98.97;92828.44;2092785;28;20028;-82
2022/03/29 01:22:09;;;;;;;17.70;10.10;;;;;;;2.07;100.00;92828.81;2090031;28;20409;-81
2022/03/29 01:23:11;;;;;;;13.32;9.00;;;;;;;2.06;99.19;92825.41;2089478;28;20017;-83
2022/03/29 01:24:14;;;;;;;13.68;9.00;;;;;;;2.07;98.15;92820.91;2088615;28;20028;-83
2022/03/29 01:25:19;;;;;;;13.90;10.07;;;;;;;2.08;97.78;92823.16;2092576;28;20025;-83
2022/03/29 01:26:33;;;;;;;12.70;9.15;;;;;;;2.08;100.00;92820.53;2096844;28;20016;-81
2022/03/29 01:27:36;;;;;;;13.60;9.18;;;;;;;2.08;98.05;92820.53;2094658;28;20033;-83
2022/03/29 01:28:38;;;;;;;12.15;8.75;;;;;;;2.08;98.42;92814.50;2089343;28;20028;-82
2022/03/29 01:29:40;;;;;;;12.25;9.43;;;;;;;2.09;97.65;92818.66;2095561;28;20017;-82
2022/03/29 01:30:42;;;;;;;12.38;9.27;;;;;;;2.06;98.92;92816.75;2089119;28;20028;-84
2022/03/29 01:31:43;;;;;;;12.00;9.43;;;;;;;2.09;99.21;92816.75;2084014;28;20029;-84
2022/03/29 01:32:47;;;;;;;14.10;9.05;;;;;;;2.10;98.70;92812.25;2094775;28;20020;-83
2022/03/29 01:33:48;;;;;;;11.57;8.70;;;;;;;2.15;98.73;92817.94;2112377;27;20102;-85
2022/03/29 01:34:49;;;;;;;12.68;9.48;;;;;;;2.16;98.08;92805.50;2105402;28;20016;-83
2022/03/29 01:35:54;;;;;;;15.60;9.30;;;;;;;2.12;98.15;92810.75;2088908;28;20012;-86
2022/03/29 01:37:02;;;;;;;13.63;8.82;;;;;;;2.11;98.49;92808.47;2094372;28;20466;-82
2022/03/29 01:38:12;;;;;;;13.48;8.50;;;;;;;2.08;98.88;92810.00;2082748;28;20032;-83
2022/03/29 01:39:14;;;;;;;11.68;8.95;;;;;;;2.12;98.64;92805.50;2099128;28;20163;-83
2022/03/29 01:40:19;;;;;;;13.75;9.02;;;;;;;2.15;98.77;92812.66;2112430;27;20495;-84
2022/03/29 01:41:20;;;;;;;10.98;8.55;;;;;;;2.16;99.12;92803.63;2111609;28;20019;-82
2022/03/29 01:42:21;;;;;;;14.05;9.20;;;;;;;2.20;98.13;92808.94;2096056;28;20037;-83
2022/03/29 01:43:22;;;;;;;13.55;8.75;;;;;;;2.13;99.06;92795.69;2088725;28;20021;-84
2022/03/29 01:44:23;;;;;;;12.00;8.98;;;;;;;2.20;98.60;92798.38;2092453;28;20107;-83
2022/03/29 01:45:28;;;;;;;11.88;8.68;;;;;;;2.34;97.09;92798.44;2100167;28;20070;-82
2022/03/29 01:46:29;;;;;;;11.80;8.68;;;;;;;2.28;97.68;92794.63;2107089;28;20488;-83
2022/03/29 01:47:30;;;;;;;13.05;9.00;;;;;;;2.26;97.10;92796.88;2096208;28;20031;-84
2022/03/29 01:48:31;;;;;;;14.13;9.20;;;;;;;2.20;97.11;92799.13;2099481;28;20128;-82
2022/03/29 01:49:33;;;;;;;10.60;8.57;;;;;;;2.19;97.75;92789.69;2097930;28;20032;-82
2022/03/29 01:50:34;;;;;;;11.90;8.43;;;;;;;2.16;97.45;92801.00;2097498;28;20094;-84
2022/03/29 01:51:35;;;;;;;12.98;9.30;;;;;;;2.19;97.38;92789.69;2104075;28;20036;-82
2022/03/29 01:52:40;;;;;;;13.65;9.15;;;;;;;2.14;97.68;92789.28;2093652;28;20376;-83
2022/03/29 01:53:42;;;;;;;11.88;8.35;;;;;;;2.14;97.99;92789.28;2095578;28;20028;-83
2022/03/29 01:54:43;;;;;;;10.00;8.57;;;;;;;2.07;98.81;92784.75;2107981;28;20435;-81
2022/03/29 01:55:45;;;;;;;13.85;8.82;;;;;;;2.04;98.25;92785.50;2102100;28;20105;-82
2022/03/29 01:56:46;;;;;;;11.43;8.57;;;;;;;2.05;98.15;92788.88;2095534;28;20028;-84
2022/03/29 01:57:50;;;;;;;11.90;7.97;;;;;;;2.08;98.69;92782.88;2094126;28;20059;-83
2022/03/29 01:58:51;;;;;;;15.85;8.20;;;;;;;1.98;98.47;92785.09;2096664;28;20016;-84
2022/03/29 02:01:12;;;;;;;12.75;8.30;;;;;;;1.99;99.52;92789.22;2099369;28;20095;-84
2022/03/29 02:02:13;;;;;;;13.52;8.48;;;;;;;1.88;100.00;92783.13;2103454;28;20097;-84
2022/03/29 02:03:14;;;;;;;10.55;8.68;;;;;;;1.97;100.00;92783.56;2111208;28;20015;-84
2022/03/29 02:04:17;;;;;;;11.27;8.40;;;;;;;1.94;100.00;92788.84;2105389;28;20028;-82
2022/03/29 02:05:19;;;;;;;11.55;8.23;;;;;;;1.93;100.00;92785.44;2104882;28;20035;-84
2022/03/29 02:06:20;;;;;;;12.23;8.75;;;;;;;1.99;100.00;92788.47;2094570;28;20099;-82
2022/03/29 02:07:23;;;;;;;13.73;8.68;;;;;;;2.04;100.00;92782.09;2089556;28;20159;-83
2022/03/29 02:08:24;;;;;;;11.82;8.85;;;;;;;2.03;100.00;92777.97;2090267;28;20457;-82
2022/03/29 02:09:24;;;;;;;9.27;7.70;;;;;;;2.07;99.16;92782.13;2088397;28;20024;-82
2022/03/29 02:12:18;;;;;;;;;;;;;;;2.09;99.95;92779.09;2139609;27;20118;-82
2022/03/29 02:13:19;;;;;;;10.50;7.45;;;;;;;2.11;99.47;92787.38;2118253;28;19916;-82
2022/03/29 02:14:20;;;;;;;14.63;8.10;;;;;;;2.01;99.39;92776.44;2106373;28;20020;-84
2022/03/29 02:15:22;;;;;;;12.07;8.20;;;;;;;1.97;100.00;92786.19;2096877;28;20032;-82
2022/03/29 02:16:22;;;;;;;12.23;8.60;;;;;;;1.97;100.00;92774.91;2097865;28;20020;-85
2022/03/29 02:17:23;;;;;;;9.75;7.88;;;;;;;2.01;99.91;92775.69;2104702;28;20019;-83
2022/03/29 02:18:24;;;;;;;12.23;8.05;;;;;;;2.07;99.23;92776.84;2106693;28;20099;-83
2022/03/29 02:19:25;;;;;;;10.32;8.10;;;;;;;2.03;99.39;92775.31;2102853;28;20726;-83
2022/03/29 02:20:26;;;;;;;12.18;8.70;;;;;;;2.03;100.00;92773.44;2106197;28;20024;-82
2022/03/29 02:21:27;;;;;;;9.85;7.85;;;;;;;1.98;99.86;92765.88;2104746;28;20031;-83
2022/03/29 02:22:28;;;;;;;12.18;8.30;;;;;;;2.01;100.00;92771.16;2104556;28;20388;-83
2022/03/29 02:23:29;;;;;;;11.90;9.18;;;;;;;1.94;100.00;92765.88;2107777;28;20019;-84
2022/03/29 02:24:30;;;;;;;10.07;8.43;;;;;;;1.88;100.00;92771.84;2113491;28;20023;-83
2022/03/29 02:25:31;;;;;;;13.40;8.80;;;;;;;1.95;100.00;92769.25;2096189;28;20519;-83
2022/03/29 02:26:32;;;;;;;9.18;7.80;;;;;;;1.92;100.00;92768.09;2096184;28;20115;-82
2022/03/29 02:27:33;;;;;;;12.70;9.32;;;;;;;1.94;100.00;92757.97;2104537;28;20024;-82
2022/03/29 02:28:34;;;;;;;13.13;8.63;;;;;;;1.91;100.00;92758.69;2110597;28;20086;-82
2022/03/29 02:29:35;;;;;;;11.55;8.30;;;;;;;1.94;100.00;92757.22;2104609;28;20020;-83
2022/03/29 02:30:36;;;;;;;11.70;8.43;;;;;;;1.87;100.00;92752.66;2100284;28;20028;-82
2022/03/29 02:31:37;;;;;;;10.75;8.88;;;;;;;1.88;100.00;92756.78;2105099;28;20032;-82
2022/03/29 02:32:39;;;;;;;12.52;8.80;;;;;;;1.88;100.00;92750.75;2112968;28;20027;-82
2022/03/29 02:33:40;;;;;;;12.20;8.43;;;;;;;1.93;100.00;92748.56;2104530;28;20035;-83
2022/03/29 02:34:41;;;;;;;11.85;8.40;;;;;;;1.93;100.00;92747.78;2104679;28;20028;-82
2022/03/29 02:35:42;;;;;;;13.05;8.57;;;;;;;2.05;100.00;92744.06;2112117;28;20034;-83
2022/03/29 02:36:43;;;;;;;10.23;7.80;;;;;;;1.98;100.00;92756.09;2103821;28;20107;-81
2022/03/29 02:37:44;;;;;;;12.25;8.40;;;;;;;1.96;100.00;92744.41;2104477;28;20405;-82
2022/03/29 02:38:47;;;;;;;11.30;8.63;;;;;;;2.00;100.00;92745.94;2104540;28;20067;-83
2022/03/29 02:39:49;;;;;;;11.65;8.48;;;;;;;1.95;99.99;92738.38;2112870;28;20020;-83
2022/03/29 02:40:50;;;;;;;10.93;8.68;;;;;;;1.97;100.00;92745.91;2104061;28;20354;-84
2022/03/29 02:41:51;;;;;;;13.10;8.25;;;;;;;1.99;99.65;92735.78;2104531;28;20027;-82
2022/03/29 02:42:55;;;;;;;10.45;8.20;;;;;;;1.99;100.00;92736.53;2104415;28;20134;-84
2022/03/29 02:43:56;;;;;;;10.05;8.07;;;;;;;2.01;100.00;92738.78;2107535;28;20027;-82
2022/03/29 02:44:57;;;;;;;13.77;8.80;;;;;;;2.04;100.00;92732.03;2104323;28;20043;-83
2022/03/29 02:45:58;;;;;;;11.75;9.30;;;;;;;2.06;99.69;92735.03;2105456;28;20635;-83
2022/03/29 02:46:59;;;;;;;10.90;8.32;;;;;;;2.03;100.00;92733.91;2097242;28;20032;-81
2022/03/29 02:48:00;;;;;;;10.77;8.20;;;;;;;2.07;99.84;92731.28;2121767;27;20018;-82
2022/03/29 02:49:02;;;;;;;11.20;8.45;;;;;;;2.00;100.00;92737.28;2120929;28;20380;-82
2022/03/29 02:50:04;;;;;;;9.45;7.95;;;;;;;1.95;100.00;92727.09;2104602;28;20511;-82
2022/03/29 02:51:05;;;;;;;12.32;8.27;;;;;;;1.97;100.00;92733.47;2096314;28;20024;-82
2022/03/29 02:52:06;;;;;;;13.23;8.15;;;;;;;2.05;100.00;92721.09;2095870;28;20036;-84
2022/03/29 02:53:08;;;;;;;9.52;7.72;;;;;;;2.08;100.00;92727.53;2111593;28;20476;-81
2022/03/29 02:54:09;;;;;;;12.15;7.82;;;;;;;2.08;100.00;92728.28;2113964;28;20119;-82
2022/03/29 02:55:11;;;;;;;9.57;7.65;;;;;;;2.08;100.00;92730.16;2104508;28;20040;-84
2022/03/29 02:56:12;;;;;;;9.43;7.78;;;;;;;2.08;100.00;92728.28;2112615;28;20102;-84
2022/03/29 02:57:13;;;;;;;11.95;8.27;;;;;;;2.05;100.00;92729.00;2112752;28;20031;-82
2022/03/29 02:58:14;;;;;;;11.40;7.93;;;;;;;2.10;100.00;92720.72;2113964;28;20016;-82
2022/03/29 02:59:17;;;;;;;10.50;7.47;;;;;;;2.01;100.00;92718.44;2104308;28;20026;-84
2022/03/29 03:00:18;;;;;;;12.50;7.80;;;;;;;1.98;100.00;92729.75;2104071;28;20051;-82
2022/03/29 03:01:19;;;;;;;10.60;7.80;;;;;;;2.08;100.00;92728.28;2121094;27;20016;-83
2022/03/29 03:02:22;;;;;;;11.82;8.13;;;;;;;2.03;100.00;92717.34;2120705;28;20024;-83
2022/03/29 03:03:23;;;;;;;9.93;7.40;;;;;;;2.05;100.00;92723.72;2094971;28;20497;-83
2022/03/29 03:04:24;;;;;;;11.75;7.75;;;;;;;1.99;100.00;92725.97;2095736;28;20017;-82
2022/03/29 03:05:25;;;;;;;11.68;8.30;;;;;;;1.95;100.00;92719.94;2104103;28;20028;-82
2022/03/29 03:06:26;;;;;;;10.85;8.07;;;;;;;1.89;100.00;92723.28;2102807;28;20024;-85
2022/03/29 03:07:27;;;;;;;10.43;8.15;;;;;;;1.95;100.00;92719.94;2110237;28;20431;-82
2022/03/29 03:08:28;;;;;;;11.00;7.22;;;;;;;1.95;100.00;92721.81;2094933;28;20501;-82
2022/03/29 03:09:29;;;;;;;11.32;8.73;;;;;;;1.94;100.00;92725.59;2094677;28;20027;-81
2022/03/29 03:10:30;;;;;;;10.82;7.28;;;;;;;1.89;100.00;92718.00;2096390;28;20063;-84
2022/03/29 03:11:31;;;;;;;14.02;7.85;;;;;;;1.95;100.00;92721.81;2102348;28;20020;-82
2022/03/29 03:12:39;;;;;;;9.27;7.72;;;;;;;1.96;100.00;92716.16;2102587;28;20032;-83
2022/03/29 03:13:40;;;;;;;16.70;8.30;;;;;;;1.93;100.00;92716.94;2096481;28;20031;-84
2022/03/29 03:14:41;;;;;;;12.20;8.65;;;;;;;1.97;100.00;92717.66;2103441;28;20024;-83
2022/03/29 03:15:42;;;;;;;10.82;8.50;;;;;;;1.99;100.00;92712.81;2112363;28;20504;-83
2022/03/29 03:16:43;;;;;;;10.25;8.00;;;;;;;2.01;100.00;92715.81;2110865;28;20392;-82
2022/03/29 03:17:45;;;;;;;12.00;7.90;;;;;;;1.99;100.00;92714.69;2104224;28;20455;-83
2022/03/29 03:18:46;;;;;;;12.85;8.25;;;;;;;1.97;100.00;92711.66;2104262;28;20456;-82
2022/03/29 03:19:47;;;;;;;11.02;8.20;;;;;;;1.85;100.00;92719.91;2095785;28;20029;-83
2022/03/29 03:20:48;;;;;;;11.35;8.38;;;;;;;1.88;100.00;92712.00;2103916;28;20024;-84
2022/03/29 03:21:49;;;;;;;10.20;8.63;;;;;;;1.91;100.00;92713.91;2103743;28;20055;-83
2022/03/29 03:22:53;;;;;;;12.70;8.68;;;;;;;1.85;100.00;92712.75;2103317;28;20115;-82
2022/03/29 03:23:54;;;;;;;9.52;7.97;;;;;;;1.82;100.00;92708.22;2097940;28;20107;-83
2022/03/29 03:24:55;;;;;;;9.18;7.57;;;;;;;1.83;100.00;92714.97;2098565;28;20497;-85
2022/03/29 03:25:56;;;;;;;10.45;8.63;;;;;;;1.80;100.00;92709.69;2090223;28;20554;-84
2022/03/29 03:26:57;;;;;;;10.00;8.35;;;;;;;1.83;100.00;92701.81;2092948;28;20025;-83
2022/03/29 03:27:58;;;;;;;10.50;8.77;;;;;;;1.83;100.00;92704.44;2106981;28;20066;-82
2022/03/29 03:28:59;;;;;;;10.35;8.65;;;;;;;1.79;100.00;92702.91;2104392;28;20107;-83
2022/03/29 03:30:01;;;;;;;12.98;8.32;;;;;;;1.78;100.00;92712.72;2085749;28;20047;-83
2022/03/29 03:31:02;;;;;;;11.77;8.60;;;;;;;1.82;100.00;92707.47;2090194;28;20035;-84
2022/03/29 03:32:03;;;;;;;12.93;9.07;;;;;;;1.92;100.00;92706.75;2099572;28;20028;-83
2022/03/29 03:33:04;;;;;;;12.02;8.13;;;;;;;1.91;100.00;92699.97;2098590;28;20474;-83
2022/03/29 03:34:05;;;;;;;11.13;8.52;;;;;;;1.91;100.00;92705.22;2097256;28;20039;-83
2022/03/29 03:35:07;;;;;;;10.35;8.00;;;;;;;1.86;100.00;92702.97;2098428;28;20020;-83
2022/03/29 03:36:08;;;;;;;11.32;8.68;;;;;;;1.86;100.00;92701.06;2096536;28;20032;-82
2022/03/29 03:37:09;;;;;;;10.95;8.27;;;;;;;1.87;100.00;92697.31;2087789;28;20024;-83
2022/03/29 03:38:10;;;;;;;11.18;8.27;;;;;;;1.92;100.00;92699.59;2093568;28;20017;-83
2022/03/29 03:39:11;;;;;;;11.35;8.20;;;;;;;1.95;100.00;92698.09;2090068;28;20013;-84
2022/03/29 03:40:12;;;;;;;12.23;8.23;;;;;;;1.96;100.00;92692.44;2098541;28;20060;-82
2022/03/29 03:41:13;;;;;;;11.50;8.55;;;;;;;1.94;100.00;92702.63;2098376;28;20024;-84
2022/03/29 03:42:14;;;;;;;12.23;8.93;;;;;;;1.96;100.00;92692.44;2091051;28;20047;-84
2022/03/29 03:43:15;;;;;;;10.93;8.32;;;;;;;1.98;100.00;92686.81;2105815;28;20024;-82
2022/03/29 03:44:16;;;;;;;11.32;8.25;;;;;;;2.00;100.00;92697.75;2094706;28;20028;-85
2022/03/29 03:45:17;;;;;;;11.05;8.30;;;;;;;1.98;100.00;92692.84;2084719;28;20835;-82
2022/03/29 03:46:18;;;;;;;12.25;8.68;;;;;;;1.98;100.00;92690.22;2088041;28;20071;-85
2022/03/29 03:47:19;;;;;;;9.43;8.23;;;;;;;2.03;100.00;92690.97;2091012;28;20028;-85
2022/03/29 03:48:22;;;;;;;12.05;8.30;;;;;;;1.96;100.00;92684.53;2098079;28;20028;-82
2022/03/29 03:49:23;;;;;;;11.52;8.25;;;;;;;2.00;100.00;92684.56;2090339;28;20044;-83
2022/03/29 03:50:24;;;;;;;9.55;7.50;;;;;;;1.93;100.00;92680.03;2090195;28;20036;-84
2022/03/29 03:51:25;;;;;;;11.55;8.35;;;;;;;1.92;100.00;92689.03;2098070;28;20421;-84
2022/03/29 03:52:26;;;;;;;12.05;8.02;;;;;;;2.03;100.00;92685.72;2089894;28;20079;-83
2022/03/29 03:53:28;;;;;;;12.15;8.52;;;;;;;1.97;100.00;92682.66;2087373;28;20036;-81
2022/03/29 03:54:29;;;;;;;12.43;8.07;;;;;;;1.89;100.00;92684.53;2090335;28;20020;-83
2022/03/29 03:55:30;;;;;;;10.13;8.15;;;;;;;1.79;100.00;92685.22;2098197;28;20055;-83
2022/03/29 03:56:31;;;;;;;12.00;7.93;;;;;;;1.72;100.00;92679.94;2098199;28;20571;-83
2022/03/29 03:57:32;;;;;;;10.90;8.23;;;;;;;1.82;100.00;92684.50;2096193;28;20070;-83
2022/03/29 03:58:33;;;;;;;10.02;7.88;;;;;;;1.88;100.00;92677.72;2098449;28;20377;-84
2022/03/29 03:59:34;;;;;;;11.32;8.02;;;;;;;1.87;100.00;92678.13;2099236;28;20025;-85
2022/03/29 04:00:35;;;;;;;10.75;7.80;;;;;;;1.88;100.00;92684.88;2097680;28;20082;-82
2022/03/29 04:01:36;;;;;;;11.63;8.20;;;;;;;1.89;100.00;92683.75;2098469;28;20130;-83
2022/03/29 04:02:38;;;;;;;10.05;7.78;;;;;;;1.84;100.00;92674.31;2100329;28;20024;-84
2022/03/29 04:03:39;;;;;;;14.27;8.38;;;;;;;1.84;100.00;92682.22;2091059;28;20076;-83
2022/03/29 04:04:40;;;;;;;10.82;8.50;;;;;;;1.80;100.00;92675.44;2098261;28;20024;-81
2022/03/29 04:05:41;;;;;;;11.52;7.80;;;;;;;1.82;100.00;92673.94;2103709;28;20538;-83
2022/03/29 04:06:42;;;;;;;10.73;8.45;;;;;;;1.93;100.00;92674.75;2102227;28;20036;-83
2022/03/29 04:07:43;;;;;;;12.13;8.70;;;;;;;1.96;100.00;92674.00;2084595;28;20029;-84
2022/03/29 04:08:44;;;;;;;10.57;8.52;;;;;;;2.02;100.00;92666.50;2095346;28;20044;-83
2022/03/29 04:09:45;;;;;;;9.23;7.82;;;;;;;1.97;100.00;92667.59;2087171;28;20033;-84
2022/03/29 04:10:46;;;;;;;15.55;8.45;;;;;;;1.92;100.00;92662.69;2093719;28;20060;-85
2022/03/29 04:11:48;;;;;;;10.43;8.02;;;;;;;1.87;100.00;92665.69;2097623;28;20057;-84
2022/03/29 04:12:49;;;;;;;10.57;8.60;;;;;;;1.90;100.00;92667.59;2089646;28;20382;-83
2022/03/29 04:13:49;;;;;;;10.57;8.00;;;;;;;1.92;100.00;92667.97;2095431;28;20032;-84
2022/03/29 04:14:50;;;;;;;10.00;7.60;;;;;;;1.93;100.00;92661.59;2089843;28;20054;-83
2022/03/29 04:15:51;;;;;;;10.32;8.05;;;;;;;1.99;100.00;92667.25;2097364;28;20616;-81
2022/03/29 04:16:52;;;;;;;10.35;8.30;;;;;;;1.92;100.00;92664.56;2095684;28;20497;-83
2022/03/29 04:17:53;;;;;;;10.20;7.97;;;;;;;1.88;100.00;92661.91;2098216;28;20031;-83
2022/03/29 04:18:55;;;;;;;11.07;8.32;;;;;;;1.95;100.00;92661.97;2094851;28;20025;-83
2022/03/29 04:19:55;;;;;;;10.07;7.78;;;;;;;1.98;100.00;92665.75;2091169;28;20028;-84
2022/03/29 04:20:57;;;;;;;10.98;7.82;;;;;;;1.96;100.00;92665.34;2098490;28;20021;-83
2022/03/29 04:21:58;;;;;;;9.73;7.65;;;;;;;1.95;100.00;92661.97;2098343;28;20016;-84
2022/03/29 04:22:59;;;;;;;13.73;8.90;;;;;;;1.86;100.00;92658.16;2103782;28;20679;-84
2022/03/29 04:24:00;;;;;;;14.30;8.82;;;;;;;1.84;100.00;92661.16;2109583;28;20020;-84
2022/03/29 04:25:03;;;;;;;11.75;8.88;;;;;;;1.90;100.00;92657.06;2098273;28;20027;-82
2022/03/29 04:26:04;;;;;;;13.88;9.15;;;;;;;1.94;100.00;92657.06;2089818;28;20029;-84
2022/03/29 04:27:06;;;;;;;11.65;9.27;;;;;;;1.90;100.00;92662.31;2093322;28;20021;-82
2022/03/29 04:28:06;;;;;;;12.77;9.05;;;;;;;2.00;100.00;92651.03;2091596;28;20021;-81
2022/03/29 04:29:07;;;;;;;15.45;9.13;;;;;;;1.88;100.00;92653.25;2093483;28;20636;-83
2022/03/29 04:30:10;;;;;;;12.23;9.15;;;;;;;1.84;100.00;92653.25;2089529;28;20032;-84
2022/03/29 04:31:11;;;;;;;13.68;8.52;;;;;;;1.91;100.00;92650.66;2089889;28;20025;-83
2022/03/29 04:32:12;;;;;;;11.70;8.80;;;;;;;2.01;100.00;92655.19;2089320;28;20024;-81
2022/03/29 04:33:14;;;;;;;10.80;9.18;;;;;;;2.04;100.00;92652.94;2089755;28;20104;-82
2022/03/29 04:34:15;;;;;;;13.13;8.65;;;;;;;1.99;100.00;92651.44;2089792;28;20037;-83
2022/03/29 04:35:16;;;;;;;11.63;8.38;;;;;;;1.92;100.00;92649.50;2100516;28;20130;-82
2022/03/29 04:36:17;;;;;;;14.00;9.23;;;;;;;1.91;100.00;92653.28;2090021;28;20549;-85
2022/03/29 04:37:18;;;;;;;12.82;8.68;;;;;;;1.89;100.00;92638.94;2106176;28;20035;-83
2022/03/29 04:38:19;;;;;;;13.40;9.07;;;;;;;1.95;100.00;92642.75;2101294;28;20027;-83
2022/03/29 04:39:20;;;;;;;12.77;8.90;;;;;;;1.94;100.00;92644.63;2096365;28;20082;-82
2022/03/29 04:40:21;;;;;;;10.68;8.27;;;;;;;1.95;100.00;92640.88;2097734;28;20028;-81
2022/03/29 04:41:22;;;;;;;15.43;9.93;;;;;;;2.01;100.00;92638.63;2089753;28;20028;-83
2022/03/29 04:42:23;;;;;;;10.75;9.10;;;;;;;1.99;100.00;92639.00;2102230;28;20055;-82
2022/03/29 04:43:24;;;;;;;16.20;9.38;;;;;;;2.04;100.00;92645.78;2097006;28;20468;-82
2022/03/29 04:44:25;;;;;;;12.07;9.30;;;;;;;2.04;100.00;92637.88;2098073;28;20048;-82
2022/03/29 04:45:26;;;;;;;11.55;9.10;;;;;;;2.06;100.00;92637.50;2099892;28;20024;-83
2022/03/29 04:46:27;;;;;;;12.38;8.82;;;;;;;1.92;100.00;92641.59;2098037;28;20034;-82
2022/03/29 04:47:28;;;;;;;13.00;8.27;;;;;;;1.80;100.00;92639.34;2089442;28;20031;-83
2022/03/29 04:48:29;;;;;;;9.90;7.88;;;;;;;1.86;100.00;92643.09;2105656;28;20020;-84
2022/03/29 04:49:30;;;;;;;12.50;7.97;;;;;;;1.96;100.00;92639.00;2097946;28;20063;-84
2022/03/29 04:50:32;;;;;;;10.70;8.50;;;;;;;1.98;100.00;92639.38;2097493;28;20024;-84
2022/03/29 04:51:36;;;;;;;10.82;8.43;;;;;;;1.93;100.00;92634.44;2089414;28;20021;-82
2022/03/29 04:52:39;;;;;;;10.45;8.20;;;;;;;1.90;100.00;92633.34;2090388;28;20082;-84